Time;durP1;ratioP1;P1;durP2;ratioP2;P2;SDS_P1;SDS_P2;PMS_P1;PMS_P2;Temp;Humidity;BMP_temperature;BMP_pressure;BME280_temperature;BME280_humidity;BME280_pressure;Samples;Min_cycle;Max_cycle;Signal;HPM_P1;HPM_P2
2021/03/02 00:01:26;;;;;;;16.73;12.00;;;5.80;89.80;;;;;;6224966;28;20501;-61
2021/03/02 00:04:29;;;;;;;16.87;12.20;;;5.80;89.90;;;;;;6225153;28;20476;-61
2021/03/02 00:07:33;;;;;;;16.07;11.70;;;5.70;90.00;;;;;;6222147;28;20622;-60
2021/03/02 00:10:39;;;;;;;20.83;11.67;;;5.70;90.10;;;;;;6195759;28;20489;-61
2021/03/02 00:13:42;;;;;;;13.37;11.13;;;5.70;90.20;;;;;;6200323;28;20480;-60
2021/03/02 00:16:52;;;;;;;17.47;11.83;;;5.70;90.40;;;;;;6200394;28;20484;-60
2021/03/02 00:20:08;;;;;;;13.40;11.50;;;5.70;90.80;;;;;;6200548;28;20445;-61
2021/03/02 00:23:18;;;;;;;16.83;11.57;;;5.70;90.40;;;;;;6199168;28;20468;-61
2021/03/02 00:26:24;;;;;;;17.20;12.87;;;5.70;90.50;;;;;;6200166;28;20471;-60
2021/03/02 00:29:27;;;;;;;15.00;11.83;;;5.70;90.60;;;;;;6200166;28;21032;-60
2021/03/02 00:32:29;;;;;;;20.00;12.50;;;5.50;90.70;;;;;;6201731;28;20473;-59
2021/03/02 00:35:32;;;;;;;16.80;12.23;;;5.50;90.70;;;;;;6223853;28;20471;-62
2021/03/02 00:38:37;;;;;;;15.40;11.57;;;5.50;90.70;;;;;;6216942;28;20870;-60
2021/03/02 00:41:40;;;;;;;16.90;13.93;;;5.50;90.90;;;;;;6222104;28;20480;-60
2021/03/02 00:44:42;;;;;;;20.10;15.63;;;5.40;91.10;;;;;;6221924;28;20798;-60
2021/03/02 00:47:44;;;;;;;17.67;13.60;;;5.30;91.30;;;;;;6224486;28;20478;-60
2021/03/02 00:50:47;;;;;;;19.17;14.10;;;5.30;91.40;;;;;;6225470;28;20475;-60
2021/03/02 00:53:49;;;;;;;16.73;13.20;;;5.30;91.40;;;;;;6227568;28;20944;-60
2021/03/02 00:56:52;;;;;;;17.47;12.93;;;5.30;91.50;;;;;;6226913;28;20805;-60
2021/03/02 00:59:54;;;;;;;20.87;14.30;;;5.30;91.50;;;;;;6228658;28;20472;-60
2021/03/02 01:02:59;;;;;;;16.03;12.97;;;5.30;91.50;;;;;;6227179;28;20472;-60
2021/03/02 01:06:02;;;;;;;15.23;11.93;;;5.30;91.90;;;;;;6228467;28;20487;-60
2021/03/02 01:09:08;;;;;;;19.77;12.77;;;5.20;91.90;;;;;;6228232;28;20476;-60
2021/03/02 01:12:11;;;;;;;15.97;12.40;;;5.20;91.90;;;;;;6228255;28;20476;-60
2021/03/02 01:15:14;;;;;;;15.43;12.97;;;5.20;92.20;;;;;;6228301;28;20468;-61
2021/03/02 01:18:16;;;;;;;17.30;12.80;;;5.20;92.10;;;;;;6228229;28;20625;-61
2021/03/02 01:21:19;;;;;;;16.80;12.30;;;5.10;92.10;;;;;;6228193;28;20626;-60
2021/03/02 01:24:22;;;;;;;16.87;13.40;;;5.10;92.20;;;;;;6228078;28;20966;-60
2021/03/02 01:27:27;;;;;;;15.33;12.13;;;5.10;92.30;;;;;;6228207;28;20483;-60
2021/03/02 01:30:30;;;;;;;17.10;12.07;;;5.00;92.40;;;;;;6227990;28;20468;-60
2021/03/02 01:33:32;;;;;;;15.87;11.70;;;5.00;92.60;;;;;;6228006;28;20472;-60
2021/03/02 01:36:34;;;;;;;17.47;12.20;;;5.00;92.60;;;;;;6227508;28;20817;-60
2021/03/02 01:39:37;;;;;;;14.50;11.90;;;5.00;92.70;;;;;;6227644;28;20505;-60
2021/03/02 01:42:40;;;;;;;15.97;11.73;;;5.00;92.70;;;;;;6227402;28;20491;-60
2021/03/02 01:45:42;;;;;;;13.73;11.63;;;4.90;92.80;;;;;;6227519;28;20484;-58
2021/03/02 01:48:47;;;;;;;16.80;11.77;;;4.90;93.00;;;;;;6227592;28;20491;-61
2021/03/02 01:51:49;;;;;;;14.40;11.60;;;4.90;93.00;;;;;;6227382;28;20491;-60
2021/03/02 01:54:52;;;;;;;18.63;12.70;;;4.90;93.00;;;;;;6227399;28;20554;-58
2021/03/02 01:57:57;;;;;;;18.17;12.10;;;4.90;93.10;;;;;;6226029;28;20471;-58
2021/03/02 02:01:06;;;;;;;18.83;13.47;;;4.90;93.20;;;;;;6227370;28;20480;-58
2021/03/02 02:04:12;;;;;;;18.13;12.57;;;4.90;93.20;;;;;;6227531;28;20476;-60
2021/03/02 02:07:21;;;;;;;19.00;12.97;;;4.90;93.20;;;;;;6226906;28;20480;-58
2021/03/02 02:10:30;;;;;;;21.73;14.10;;;4.80;93.30;;;;;;6226967;28;20472;-60
2021/03/02 02:13:41;;;;;;;17.20;13.60;;;4.80;93.40;;;;;;6227078;28;20492;-60
2021/03/02 02:16:46;;;;;;;16.80;14.30;;;4.70;93.60;;;;;;6226834;28;20472;-60
2021/03/02 02:19:53;;;;;;;17.43;13.17;;;4.70;93.70;;;;;;6217819;28;20634;-60
2021/03/02 02:23:18;;;;;;;17.10;13.40;;;4.70;93.70;;;;;;6226654;28;20438;-60
2021/03/02 02:26:47;;;;;;;16.17;12.67;;;4.60;93.70;;;;;;6226877;28;20607;-60
2021/03/02 02:29:50;;;;;;;18.57;12.40;;;4.60;93.90;;;;;;6226843;28;20460;-60
2021/03/02 02:32:55;;;;;;;17.13;13.67;;;4.50;94.00;;;;;;6226715;28;20547;-60
2021/03/02 02:36:00;;;;;;;18.43;13.10;;;4.50;94.10;;;;;;6226540;28;20464;-58
2021/03/02 02:39:03;;;;;;;16.47;13.17;;;4.50;94.10;;;;;;6226607;28;20476;-58
2021/03/02 02:42:07;;;;;;;17.03;12.70;;;4.50;94.30;;;;;;6226227;28;20487;-58
2021/03/02 02:45:11;;;;;;;16.37;12.73;;;4.40;94.40;;;;;;6226454;28;20472;-61
2021/03/02 02:48:14;;;;;;;16.50;11.70;;;4.50;94.50;;;;;;6226755;28;20483;-60
2021/03/02 02:51:18;;;;;;;23.53;15.70;;;4.50;94.40;;;;;;6226278;28;20554;-61
2021/03/02 02:54:21;;;;;;;18.50;13.30;;;4.50;94.40;;;;;;6226038;28;20952;-60
2021/03/02 02:57:26;;;;;;;21.53;15.07;;;4.50;94.40;;;;;;6226039;28;20476;-60
2021/03/02 03:00:28;;;;;;;15.37;13.73;;;4.50;94.40;;;;;;6226107;28;20483;-60
2021/03/02 03:03:34;;;;;;;22.37;14.93;;;4.30;94.60;;;;;;6225895;28;20571;-60
2021/03/02 03:06:41;;;;;;;17.73;15.10;;;4.30;94.90;;;;;;6225800;28;20542;-60
2021/03/02 03:09:44;;;;;;;21.17;15.33;;;4.30;95.10;;;;;;6225443;28;20472;-59
2021/03/02 03:12:52;;;;;;;17.73;13.50;;;4.30;95.20;;;;;;6225690;28;20498;-59
2021/03/02 03:15:59;;;;;;;19.30;14.70;;;4.30;95.20;;;;;;6225696;28;20967;-61
2021/03/02 03:19:02;;;;;;;16.23;14.30;;;4.30;95.00;;;;;;6225631;28;20487;-60
2021/03/02 03:22:04;;;;;;;16.00;12.90;;;4.20;95.00;;;;;;6221230;28;20932;-56
2021/03/02 03:25:09;;;;;;;17.90;13.70;;;4.20;95.00;;;;;;6225380;28;20811;-57
2021/03/02 03:28:16;;;;;;;15.80;13.07;;;4.30;95.10;;;;;;6225123;28;20986;-57
2021/03/02 03:31:18;;;;;;;16.70;11.33;;;4.20;95.20;;;;;;6225004;28;20483;-62
2021/03/02 03:34:22;;;;;;;17.37;12.63;;;4.20;95.10;;;;;;6224928;28;20483;-58
2021/03/02 03:37:24;;;;;;;18.90;13.43;;;4.20;95.20;;;;;;6224960;28;20487;-58
2021/03/02 03:40:26;;;;;;;20.70;13.83;;;4.20;95.20;;;;;;6224913;28;20472;-60
2021/03/02 03:43:30;;;;;;;20.83;13.37;;;4.10;95.20;;;;;;6224839;28;20480;-60
2021/03/02 03:46:32;;;;;;;18.47;13.77;;;4.00;95.60;;;;;;6225063;28;20487;-59
2021/03/02 03:49:34;;;;;;;19.17;14.50;;;4.00;96.20;;;;;;6225102;28;20468;-60
2021/03/02 03:52:40;;;;;;;19.63;13.70;;;4.00;95.90;;;;;;6224989;28;20626;-60
2021/03/02 03:55:45;;;;;;;19.33;13.40;;;4.10;96.00;;;;;;6225593;28;20472;-60
2021/03/02 03:58:50;;;;;;;14.07;11.73;;;4.00;95.90;;;;;;6224958;28;20472;-59
2021/03/02 04:01:54;;;;;;;21.43;15.23;;;4.00;96.00;;;;;;6225045;28;20449;-60
2021/03/02 04:04:58;;;;;;;22.37;14.00;;;4.00;96.10;;;;;;6225342;28;20472;-58
2021/03/02 04:08:00;;;;;;;21.70;13.97;;;4.00;96.20;;;;;;6225114;28;20464;-57
2021/03/02 04:11:04;;;;;;;17.37;14.63;;;4.00;96.20;;;;;;6225207;28;20444;-59
2021/03/02 04:14:09;;;;;;;19.03;14.10;;;4.00;96.30;;;;;;6225057;28;20487;-60
2021/03/02 04:17:11;;;;;;;19.77;13.93;;;4.00;96.30;;;;;;6224808;28;20864;-61
2021/03/02 04:20:14;;;;;;;24.93;14.70;;;3.90;96.20;;;;;;6224956;28;20460;-61
2021/03/02 04:23:16;;;;;;;16.97;13.47;;;4.00;96.30;;;;;;6229089;28;20836;-60
2021/03/02 04:26:20;;;;;;;19.30;14.80;;;3.90;96.30;;;;;;6225253;28;20472;-60
2021/03/02 04:29:23;;;;;;;23.27;14.07;;;3.90;96.20;;;;;;6229521;28;20468;-60
2021/03/02 04:32:25;;;;;;;17.57;13.37;;;3.90;96.10;;;;;;6229473;28;20472;-60
2021/03/02 04:35:30;;;;;;;17.40;11.97;;;3.90;96.40;;;;;;6229430;28;20478;-59
2021/03/02 04:38:32;;;;;;;24.57;14.30;;;3.90;96.40;;;;;;6229369;28;20479;-59
2021/03/02 04:41:35;;;;;;;20.27;13.77;;;3.90;96.40;;;;;;6229081;28;20476;-60
2021/03/02 04:44:38;;;;;;;18.33;13.37;;;3.90;96.40;;;;;;6229167;28;20482;-59
2021/03/02 04:47:43;;;;;;;21.00;14.13;;;3.90;96.40;;;;;;6228844;28;20968;-60
2021/03/02 04:50:46;;;;;;;19.60;13.90;;;3.80;96.40;;;;;;6229840;28;20475;-60
2021/03/02 04:53:48;;;;;;;19.20;14.20;;;3.90;96.60;;;;;;6229659;28;20464;-60
2021/03/02 04:56:50;;;;;;;20.80;14.63;;;3.80;96.50;;;;;;6228707;28;20490;-60
2021/03/02 04:59:53;;;;;;;21.83;15.67;;;3.70;96.70;;;;;;6228700;28;20971;-61
2021/03/02 05:02:55;;;;;;;19.10;13.90;;;3.70;96.80;;;;;;6229125;28;20468;-60
2021/03/02 05:05:58;;;;;;;22.87;15.47;;;3.70;96.90;;;;;;6228721;28;20463;-60
2021/03/02 05:09:00;;;;;;;19.60;14.47;;;3.70;96.90;;;;;;6228326;28;20491;-60
2021/03/02 05:12:02;;;;;;;21.37;15.37;;;3.70;96.90;;;;;;6228129;28;20793;-60
2021/03/02 05:15:07;;;;;;;20.97;13.53;;;3.70;96.80;;;;;;6228469;28;20491;-60
2021/03/02 05:18:09;;;;;;;19.73;13.67;;;3.70;96.60;;;;;;6228337;28;20481;-59
2021/03/02 05:21:14;;;;;;;19.33;13.40;;;3.70;96.60;;;;;;6228496;28;20558;-59
2021/03/02 05:24:16;;;;;;;18.57;15.40;;;3.70;96.60;;;;;;6228334;28;20467;-59
2021/03/02 05:27:19;;;;;;;22.90;15.80;;;3.70;96.50;;;;;;6228351;28;20476;-60
2021/03/02 05:30:24;;;;;;;25.43;15.33;;;3.70;96.60;;;;;;6218541;28;20804;-59
2021/03/02 05:33:26;;;;;;;19.47;14.83;;;3.60;96.60;;;;;;6227583;28;20488;-59
2021/03/02 05:36:29;;;;;;;22.60;13.67;;;3.60;96.80;;;;;;6227797;28;20562;-60
2021/03/02 05:39:31;;;;;;;21.90;15.77;;;3.60;96.80;;;;;;6227786;28;20975;-60
2021/03/02 05:42:34;;;;;;;20.23;15.80;;;3.60;96.80;;;;;;6227138;28;20476;-60
2021/03/02 05:45:40;;;;;;;18.67;13.60;;;3.60;96.80;;;;;;6227468;28;20480;-60
2021/03/02 05:48:43;;;;;;;23.17;15.17;;;3.60;96.90;;;;;;6227737;28;20472;-60
2021/03/02 05:51:45;;;;;;;20.20;14.80;;;3.60;96.90;;;;;;6226765;28;20475;-60
2021/03/02 05:54:47;;;;;;;24.03;15.93;;;3.60;96.90;;;;;;6227417;28;20787;-60
2021/03/02 05:57:49;;;;;;;23.93;15.50;;;3.60;96.90;;;;;;6227318;28;20491;-60
2021/03/02 06:00:54;;;;;;;27.53;17.03;;;3.50;97.10;;;;;;6227431;28;20468;-60
2021/03/02 06:03:56;;;;;;;20.33;15.70;;;3.50;97.30;;;;;;6227080;28;20803;-60
2021/03/02 06:07:03;;;;;;;20.63;16.17;;;3.60;97.40;;;;;;6226735;28;20476;-60
2021/03/02 06:10:06;;;;;;;24.90;16.93;;;3.60;97.40;;;;;;6227123;28;20522;-60
2021/03/02 06:13:09;;;;;;;21.13;15.53;;;3.60;97.40;;;;;;6226887;28;20483;-60
2021/03/02 06:16:12;;;;;;;24.23;15.10;;;3.70;97.50;;;;;;6226948;28;20479;-60
2021/03/02 06:19:14;;;;;;;26.07;16.23;;;3.70;97.30;;;;;;6226846;28;20483;-60
2021/03/02 06:22:34;;;;;;;19.27;15.80;;;3.80;97.30;;;;;;6226714;28;20967;-59
2021/03/02 06:25:38;;;;;;;29.73;16.57;;;3.90;97.30;;;;;;6226604;28;20567;-60
2021/03/02 06:28:43;;;;;;;24.40;17.30;;;3.90;97.10;;;;;;6226488;28;20480;-60
2021/03/02 06:31:47;;;;;;;25.40;16.00;;;4.00;97.30;;;;;;6226441;28;20464;-60
2021/03/02 06:34:50;;;;;;;20.03;14.60;;;4.10;97.10;;;;;;6222266;28;20495;-60
2021/03/02 06:37:52;;;;;;;20.90;15.20;;;4.10;97.00;;;;;;6226124;28;20494;-60
2021/03/02 06:40:54;;;;;;;19.87;15.23;;;4.20;96.70;;;;;;6226020;28;20804;-60
2021/03/02 06:43:56;;;;;;;26.43;14.50;;;4.20;96.70;;;;;;6225209;28;20444;-60
2021/03/02 06:46:59;;;;;;;21.83;14.80;;;4.30;96.60;;;;;;6226034;28;20456;-60
2021/03/02 06:50:04;;;;;;;22.33;16.07;;;4.40;96.50;;;;;;6226410;28;20494;-60
2021/03/02 06:53:10;;;;;;;22.83;15.07;;;4.40;96.60;;;;;;6226399;28;20480;-60
2021/03/02 06:56:13;;;;;;;32.07;18.23;;;4.50;96.60;;;;;;6226107;28;20456;-60
2021/03/02 06:59:16;;;;;;;23.80;15.70;;;4.50;96.10;;;;;;6226165;28;20467;-60
2021/03/02 07:02:32;;;;;;;24.43;16.63;;;4.60;96.10;;;;;;6226028;28;20475;-61
2021/03/02 07:05:35;;;;;;;25.23;16.13;;;4.70;96.10;;;;;;6225753;28;20991;-60
2021/03/02 07:08:37;;;;;;;20.93;15.40;;;4.70;96.00;;;;;;6225908;28;20468;-60
2021/03/02 07:11:40;;;;;;;22.20;14.13;;;4.80;96.00;;;;;;6225055;28;20866;-60
2021/03/02 07:14:43;;;;;;;28.90;16.70;;;4.90;95.90;;;;;;6225874;28;20479;-60
2021/03/02 07:17:52;;;;;;;20.47;14.87;;;5.10;95.80;;;;;;6225917;28;20464;-61
2021/03/02 07:21:00;;;;;;;24.63;16.03;;;5.10;95.70;;;;;;6224634;28;20479;-61
2021/03/02 07:24:05;;;;;;;20.00;15.20;;;5.30;95.60;;;;;;6221276;28;20479;-61
2021/03/02 07:27:10;;;;;;;22.37;15.53;;;5.40;95.60;;;;;;6224621;28;20949;-60
2021/03/02 07:30:13;;;;;;;21.27;17.20;;;5.40;95.50;;;;;;6224894;28;20471;-60
2021/03/02 07:33:17;;;;;;;31.27;17.77;;;5.60;95.20;;;;;;6223314;28;20484;-59
2021/03/02 07:36:20;;;;;;;25.17;17.93;;;5.60;95.20;;;;;;6217832;28;20594;-59
2021/03/02 07:39:25;;;;;;;27.53;17.73;;;5.70;95.00;;;;;;6222194;28;20795;-59
2021/03/02 07:42:27;;;;;;;30.70;16.70;;;5.80;95.10;;;;;;6221892;28;20482;-61
2021/03/02 07:45:30;;;;;;;21.63;15.80;;;5.80;94.90;;;;;;6223760;28;20483;-59
2021/03/02 07:48:36;;;;;;;26.70;15.77;;;5.90;94.70;;;;;;6224410;28;20954;-59
2021/03/02 07:51:39;;;;;;;28.20;17.03;;;6.00;94.70;;;;;;6224446;28;20978;-60
2021/03/02 07:54:44;;;;;;;28.63;18.33;;;6.20;94.60;;;;;;6224452;28;20491;-60
2021/03/02 07:57:47;;;;;;;33.37;17.67;;;6.30;94.30;;;;;;6215970;28;20823;-59
2021/03/02 08:00:51;;;;;;;28.83;18.43;;;6.50;94.10;;;;;;6189998;28;20488;-60
2021/03/02 08:04:31;;;;;;;27.10;16.90;;;6.60;93.90;;;;;;6190285;28;20480;-60
2021/03/02 08:07:34;;;;;;;24.00;14.57;;;6.80;93.60;;;;;;6200352;28;20474;-59
2021/03/02 08:10:36;;;;;;;20.20;14.40;;;6.80;93.60;;;;;;6226508;28;20995;-59
2021/03/02 08:13:40;;;;;;;23.30;14.10;;;7.00;93.90;;;;;;6229380;28;20612;-59
2021/03/02 08:17:04;;;;;;;24.90;16.37;;;7.20;93.30;;;;;;6218461;28;20780;-59
2021/03/02 08:20:09;;;;;;;23.87;14.30;;;7.40;92.60;;;;;;6201053;28;20461;-59
2021/03/02 08:23:11;;;;;;;19.63;14.77;;;7.60;92.00;;;;;;6204975;28;20437;-59
2021/03/02 08:26:28;;;;;;;19.37;14.50;;;7.80;91.40;;;;;;6205098;28;20453;-60
2021/03/02 08:29:30;;;;;;;17.07;13.13;;;8.00;90.80;;;;;;6204953;28;20468;-60
2021/03/02 08:32:32;;;;;;;19.60;13.83;;;8.20;90.50;;;;;;6204802;28;20974;-59
2021/03/02 08:35:37;;;;;;;16.47;12.10;;;8.50;90.00;;;;;;6212544;28;20783;-59
2021/03/02 08:38:40;;;;;;;16.10;13.77;;;9.60;89.70;;;;;;6190496;28;20477;-59
2021/03/02 08:41:49;;;;;;;19.57;14.10;;;12.60;80.80;;;;;;6185530;28;20485;-57
2021/03/02 08:45:07;;;;;;;18.40;14.50;;;17.50;60.70;;;;;;6199168;28;20474;-59
2021/03/02 08:48:14;;;;;;;17.67;15.03;;;22.30;45.60;;;;;;6180293;28;20477;-62
2021/03/02 08:51:21;;;;;;;18.90;16.67;;;25.50;35.90;;;;;;6180001;28;20234;-59
2021/03/02 08:54:23;;;;;;;19.17;15.57;;;27.60;31.60;;;;;;6193019;28;20229;-58
2021/03/02 08:57:25;;;;;;;19.40;17.50;;;29.70;27.60;;;;;;6218567;28;20703;-60
2021/03/02 09:00:28;;;;;;;20.60;18.50;;;30.80;25.50;;;;;;6228708;28;20348;-64
2021/03/02 09:03:31;;;;;;;19.42;17.40;;;32.50;24.00;;;;;;6228447;28;20239;-63
2021/03/02 09:06:45;;;;;;;19.13;17.27;;;33.80;22.10;;;;;;6227461;28;20316;-65
2021/03/02 09:09:47;;;;;;;19.52;17.70;;;34.50;21.20;;;;;;6228288;28;20229;-63
2021/03/02 09:12:50;;;;;;;21.25;19.10;;;35.60;20.40;;;;;;6204125;28;20233;-64
2021/03/02 09:15:52;;;;;;;21.05;18.95;;;35.80;19.80;;;;;;6203863;28;20315;-64
2021/03/02 09:19:15;;;;;;;19.33;17.48;;;36.70;19.60;;;;;;6203249;28;20974;-64
2021/03/02 09:22:20;;;;;;;19.60;17.90;;;37.40;18.60;;;;;;6202082;28;20244;-64
2021/03/02 09:25:31;;;;;;;19.75;17.70;;;38.30;18.10;;;;;;6203030;28;20355;-65
2021/03/02 09:28:34;;;;;;;23.83;21.73;;;38.70;17.60;;;;;;6203162;28;20701;-62
2021/03/02 09:31:37;;;;;;;19.88;18.27;;;39.10;17.10;;;;;;6202972;28;20240;-64
2021/03/02 09:34:41;;;;;;;21.30;18.40;;;39.60;17.10;;;;;;6202958;28;20273;-63
2021/03/02 09:37:44;;;;;;;21.77;19.70;;;40.30;16.60;;;;;;6198565;28;20233;-63
2021/03/02 09:40:49;;;;;;;22.92;18.38;;;40.90;16.10;;;;;;6201895;28;20793;-65
2021/03/02 09:43:51;;;;;;;21.00;19.00;;;41.10;15.90;;;;;;6202620;28;20229;-64
2021/03/02 09:46:57;;;;;;;20.98;19.05;;;40.60;15.80;;;;;;6221735;28;20232;-62
2021/03/02 09:50:04;;;;;;;22.50;20.27;;;41.00;15.70;;;;;;6227078;28;20209;-63
2021/03/02 09:53:13;;;;;;;20.50;18.77;;;40.90;15.50;;;;;;6227072;28;20200;-64
2021/03/02 09:56:17;;;;;;;20.13;18.00;;;40.60;15.80;;;;;;6227174;28;20239;-64
2021/03/02 09:59:23;;;;;;;21.98;20.08;;;40.70;15.70;;;;;;6226766;28;20224;-62
2021/03/02 10:02:25;;;;;;;22.25;20.27;;;40.60;15.80;;;;;;6227234;28;20311;-62
2021/03/02 10:05:32;;;;;;;20.33;18.63;;;40.40;16.00;;;;;;6226631;28;20239;-65
2021/03/02 10:08:37;;;;;;;21.27;19.38;;;41.00;15.40;;;;;;6211426;28;20743;-62
2021/03/02 10:11:40;;;;;;;20.88;19.20;;;41.20;15.40;;;;;;6202634;28;20240;-65
2021/03/02 10:14:44;;;;;;;20.23;18.40;;;41.70;15.30;;;;;;6207997;28;20604;-64
2021/03/02 10:17:59;;;;;;;21.67;19.77;;;42.00;14.90;;;;;;6226213;28;20224;-64
2021/03/02 10:21:04;;;;;;;20.17;18.35;;;42.10;14.90;;;;;;6225751;28;20225;-64
2021/03/02 10:24:30;;;;;;;19.23;17.65;;;43.20;14.60;;;;;;6226320;28;20236;-64
2021/03/02 10:31:46;;;;;;;18.88;17.10;;;42.10;14.70;;;;;;6079497;29;20232;-64
2021/03/02 10:34:52;;;;;;;18.50;16.75;;;41.30;14.80;;;;;;6104149;29;20232;-64
2021/03/02 10:37:54;;;;;;;19.50;17.55;;;40.50;15.10;;;;;;6118924;29;20242;-62
2021/03/02 10:40:57;;;;;;;15.68;14.35;;;39.80;15.60;;;;;;6127516;28;20215;-62
2021/03/02 10:44:00;;;;;;;18.20;15.10;;;40.00;15.30;;;;;;6127617;29;20242;-64
2021/03/02 10:47:02;;;;;;;23.67;14.50;;;41.40;14.90;;;;;;6150836;28;20226;-63
2021/03/02 10:50:06;;;;;;;14.13;12.93;;;41.90;14.70;;;;;;6140846;28;20216;-62
2021/03/02 10:53:08;;;;;;;16.42;11.70;;;40.60;14.60;;;;;;6149891;28;20632;-65
2021/03/02 10:56:11;;;;;;;12.35;11.13;;;42.00;14.90;;;;;;6151330;28;20234;-63
2021/03/02 10:59:13;;;;;;;12.82;11.73;;;43.20;13.70;;;;;;6151092;28;20543;-62
2021/03/02 11:02:16;;;;;;;13.93;12.38;;;43.80;13.40;;;;;;6151363;29;20245;-65
2021/03/02 11:05:18;;;;;;;13.52;12.43;;;44.20;13.30;;;;;;6149893;29;20742;-63
2021/03/02 11:08:20;;;;;;;12.75;11.75;;;43.10;13.20;;;;;;6157110;28;20272;-64
2021/03/02 11:11:43;;;;;;;11.23;10.32;;;43.60;13.30;;;;;;6176716;28;20360;-64
2021/03/02 11:14:47;;;;;;;12.63;11.60;;;43.70;12.90;;;;;;6179026;28;20312;-63
2021/03/02 11:17:49;;;;;;;11.68;10.77;;;43.50;13.10;;;;;;6224967;28;20228;-62
2021/03/02 11:21:09;;;;;;;13.13;12.13;;;43.70;13.30;;;;;;6225645;28;20232;-63
2021/03/02 11:24:11;;;;;;;11.00;10.20;;;41.70;13.60;;;;;;6225462;28;20259;-61
2021/03/02 11:27:14;;;;;;;12.35;11.38;;;39.80;14.40;;;;;;6225200;28;20232;-61
2021/03/02 11:30:18;;;;;;;12.77;11.57;;;40.90;14.30;;;;;;6225311;28;20237;-62
2021/03/02 11:33:30;;;;;;;11.88;10.88;;;42.40;14.00;;;;;;6223407;28;20244;-63
2021/03/02 11:36:33;;;;;;;10.80;9.90;;;43.50;12.90;;;;;;6221839;28;20229;-62
2021/03/02 11:39:36;;;;;;;11.75;10.85;;;43.40;12.80;;;;;;6200755;28;20225;-62
2021/03/02 11:42:42;;;;;;;11.15;10.13;;;43.10;13.10;;;;;;6200268;28;20248;-62
2021/03/02 11:45:51;;;;;;;12.40;11.25;;;42.20;13.20;;;;;;6200923;28;20221;-63
2021/03/02 11:48:54;;;;;;;11.45;10.55;;;40.30;14.10;;;;;;6200494;28;20319;-63
2021/03/02 11:51:56;;;;;;;10.90;10.00;;;40.90;14.00;;;;;;6200746;28;20229;-63
2021/03/02 11:54:58;;;;;;;11.70;10.65;;;40.60;14.00;;;;;;6207111;28;20665;-64
2021/03/02 11:58:02;;;;;;;11.25;10.25;;;40.50;14.30;;;;;;6224707;28;20255;-61
2021/03/02 12:01:04;;;;;;;10.63;9.82;;;43.10;13.50;;;;;;6224977;28;20224;-60
2021/03/02 12:04:06;;;;;;;9.65;8.85;;;44.00;12.70;;;;;;6224507;28;20236;-67
2021/03/02 12:07:10;;;;;;;11.00;10.10;;;44.70;12.80;;;;;;6224241;28;20232;-63
2021/03/02 12:10:13;;;;;;;11.43;10.32;;;44.00;12.30;;;;;;6224675;28;20232;-63
2021/03/02 12:13:17;;;;;;;10.48;9.57;;;43.10;12.60;;;;;;6224978;28;20575;-63
2021/03/02 12:16:19;;;;;;;30.02;13.85;;;44.00;12.50;;;;;;6224637;28;20232;-65
2021/03/02 12:19:21;;;;;;;9.40;8.50;;;45.10;12.20;;;;;;6224335;28;20228;-58
2021/03/02 12:22:24;;;;;;;10.25;9.40;;;44.80;12.00;;;;;;6224436;28;20235;-65
2021/03/02 12:25:26;;;;;;;11.68;8.48;;;43.70;12.30;;;;;;6224009;28;20228;-60
2021/03/02 12:28:29;;;;;;;9.48;8.68;;;44.50;12.10;;;;;;6223797;28;20679;-61
2021/03/02 12:31:31;;;;;;;9.52;8.82;;;45.50;11.60;;;;;;6224761;28;20232;-62
2021/03/02 12:34:37;;;;;;;9.20;8.60;;;44.80;11.80;;;;;;6224095;28;20213;-62
2021/03/02 12:37:39;;;;;;;9.48;8.77;;;44.20;12.00;;;;;;6222605;28;20544;-62
2021/03/02 12:40:41;;;;;;;9.13;8.35;;;44.20;12.10;;;;;;6222482;28;20240;-62
2021/03/02 12:43:45;;;;;;;10.30;9.60;;;45.20;11.80;;;;;;6227118;28;20224;-61
2021/03/02 12:46:47;;;;;;;10.80;10.07;;;44.80;11.60;;;;;;6227467;28;20310;-63
2021/03/02 12:49:50;;;;;;;11.02;9.98;;;44.20;11.80;;;;;;6228535;28;20366;-62
2021/03/02 12:52:52;;;;;;;10.60;9.70;;;41.50;12.90;;;;;;6228745;28;20241;-60
2021/03/02 12:55:54;;;;;;;10.63;9.63;;;40.80;13.20;;;;;;6228884;28;20228;-60
2021/03/02 12:58:57;;;;;;;9.82;9.02;;;39.20;13.90;;;;;;6228412;28;20254;-61
2021/03/02 13:02:00;;;;;;;10.18;9.30;;;40.10;13.70;;;;;;6228949;28;20213;-61
2021/03/02 13:05:04;;;;;;;9.35;8.65;;;41.30;13.00;;;;;;6228134;28;20225;-61
2021/03/02 13:08:07;;;;;;;10.27;9.38;;;41.80;13.20;;;;;;6228229;28;20542;-61
2021/03/02 13:11:12;;;;;;;11.55;10.45;;;39.70;13.80;;;;;;6228032;28;20644;-61
2021/03/02 13:14:15;;;;;;;10.05;9.15;;;39.40;14.50;;;;;;6228642;28;20284;-60
2021/03/02 13:17:18;;;;;;;10.63;9.82;;;40.40;13.70;;;;;;6227848;28;20367;-62
2021/03/02 13:20:22;;;;;;;13.30;10.43;;;41.80;13.30;;;;;;6226938;28;20559;-62
2021/03/02 13:23:26;;;;;;;11.25;10.35;;;41.30;13.40;;;;;;6226092;28;20255;-61
2021/03/02 13:26:32;;;;;;;12.82;11.57;;;41.80;13.40;;;;;;6225763;28;20558;-61
2021/03/02 13:29:40;;;;;;;11.55;10.75;;;41.50;13.20;;;;;;6225738;28;20688;-63
2021/03/02 13:32:48;;;;;;;13.13;12.07;;;40.70;13.70;;;;;;6221535;28;20220;-61
2021/03/02 13:35:51;;;;;;;12.43;11.43;;;41.10;13.90;;;;;;6226469;28;20273;-63
2021/03/02 13:38:58;;;;;;;11.75;10.75;;;41.60;13.90;;;;;;6222490;28;20240;-62
2021/03/02 13:42:05;;;;;;;11.25;10.20;;;41.20;13.70;;;;;;6226850;28;20236;-62
2021/03/02 13:45:14;;;;;;;11.90;11.00;;;39.90;13.50;;;;;;6222517;28;20227;-62
2021/03/02 13:48:30;;;;;;;11.65;10.65;;;39.80;14.00;;;;;;6226920;28;20274;-63
2021/03/02 13:51:38;;;;;;;11.98;10.98;;;38.60;14.70;;;;;;6225564;28;20225;-63
2021/03/02 13:54:41;;;;;;;15.93;11.55;;;37.10;15.50;;;;;;6226858;28;20221;-63
2021/03/02 13:57:43;;;;;;;13.45;12.20;;;36.10;15.80;;;;;;6227391;28;20232;-62
2021/03/02 14:00:46;;;;;;;12.40;11.35;;;33.50;17.30;;;;;;6227263;28;20228;-63
2021/03/02 14:03:51;;;;;;;11.90;10.90;;;30.30;19.00;;;;;;6222614;28;20672;-63
2021/03/02 14:06:54;;;;;;;11.80;10.70;;;28.40;20.50;;;;;;6226928;28;20244;-63
2021/03/02 14:09:57;;;;;;;11.07;10.07;;;26.90;21.90;;;;;;6226941;28;20703;-64
2021/03/02 14:13:01;;;;;;;11.17;10.07;;;25.40;23.50;;;;;;6226599;28;20239;-62
2021/03/02 14:16:09;;;;;;;10.87;9.77;;;23.70;24.60;;;;;;6227067;28;20613;-61
2021/03/02 14:19:11;;;;;;;12.93;11.17;;;22.50;25.90;;;;;;6227021;28;20318;-62
2021/03/02 14:22:14;;;;;;;10.07;8.60;;;21.50;26.60;;;;;;6226843;28;20676;-62
2021/03/02 14:25:17;;;;;;;12.23;9.53;;;20.50;27.50;;;;;;6226701;28;20233;-62
2021/03/02 14:28:20;;;;;;;11.00;9.17;;;20.20;28.20;;;;;;6226502;28;20237;-59
2021/03/02 14:31:25;;;;;;;10.37;9.30;;;19.90;28.70;;;;;;6226429;28;20267;-58
2021/03/02 14:34:27;;;;;;;10.43;9.43;;;19.30;29.60;;;;;;6225930;28;20248;-58
2021/03/02 14:37:30;;;;;;;9.70;8.07;;;19.10;29.90;;;;;;6215389;28;20238;-58
2021/03/02 14:40:33;;;;;;;11.97;9.30;;;18.70;30.30;;;;;;6201750;28;20233;-58
2021/03/02 14:43:37;;;;;;;11.90;8.13;;;18.40;31.10;;;;;;6201446;28;20237;-59
2021/03/02 14:46:42;;;;;;;11.93;9.63;;;18.20;31.60;;;;;;6201472;28;20700;-59
2021/03/02 14:49:51;;;;;;;9.70;8.80;;;18.10;31.50;;;;;;6201688;28;20234;-58
2021/03/02 14:52:54;;;;;;;10.10;9.10;;;17.90;32.00;;;;;;6201670;28;20285;-58
2021/03/02 14:56:04;;;;;;;10.67;8.40;;;17.70;32.40;;;;;;6201506;28;20283;-59
2021/03/02 14:59:09;;;;;;;9.67;8.53;;;17.70;33.10;;;;;;6201183;28;20221;-59
2021/03/02 15:02:15;;;;;;;11.30;9.20;;;17.60;32.80;;;;;;6201395;28;20429;-57
2021/03/02 15:05:18;;;;;;;11.10;8.37;;;17.40;33.30;;;;;;6196050;28;20477;-58
2021/03/02 15:08:22;;;;;;;11.07;9.20;;;17.00;34.20;;;;;;6214375;28;20464;-57
2021/03/02 15:11:26;;;;;;;12.73;9.40;;;16.90;34.50;;;;;;6191183;28;20484;-59
2021/03/02 15:14:31;;;;;;;9.50;8.57;;;16.70;34.30;;;;;;6550270;23;22185;-60
2021/03/02 15:17:37;;;;;;;13.67;9.37;;;16.50;35.00;;;;;;6207667;28;20457;-60
2021/03/02 15:20:40;;;;;;;12.60;9.00;;;16.50;35.10;;;;;;6211979;28;20477;-59
2021/03/02 15:23:44;;;;;;;10.27;8.30;;;16.50;35.10;;;;;;6192493;28;20640;-60
2021/03/02 15:26:49;;;;;;;12.87;8.90;;;16.40;35.40;;;;;;6182792;28;20569;-60
2021/03/02 15:29:54;;;;;;;9.10;8.20;;;16.40;35.20;;;;;;6200291;28;20531;-60
2021/03/02 15:32:58;;;;;;;8.23;7.20;;;16.20;35.10;;;;;;6196298;28;20480;-61
2021/03/02 15:36:01;;;;;;;10.47;7.90;;;16.00;35.40;;;;;;6201075;28;20615;-61
2021/03/02 15:39:04;;;;;;;11.00;7.90;;;15.90;35.50;;;;;;6188613;28;20565;-63
2021/03/02 15:42:08;;;;;;;10.10;8.40;;;15.90;35.50;;;;;;6198584;28;20473;-62
2021/03/02 15:45:23;;;;;;;12.40;8.67;;;15.90;35.60;;;;;;6199178;28;20477;-61
2021/03/02 15:48:28;;;;;;;10.70;8.27;;;15.80;35.80;;;;;;6198671;28;20477;-64
2021/03/02 15:51:35;;;;;;;13.83;9.47;;;15.80;36.80;;;;;;6175811;28;20974;-61